createdAt,value
2019-05-10T00:00:48.891Z,2.43
2019-05-10T00:03:20.042Z,2.40
2019-05-10T00:05:48.326Z,2.47
2019-05-10T00:08:18.485Z,2.17
2019-05-10T00:10:46.894Z,2.27
2019-05-10T00:13:15.235Z,2.53
2019-05-10T00:15:41.737Z,2.57
2019-05-10T00:18:08.075Z,2.33
2019-05-10T00:20:34.546Z,2.57
2019-05-10T00:23:00.908Z,2.33
2019-05-10T00:25:27.354Z,2.77
2019-05-10T00:27:53.698Z,2.30
2019-05-10T00:30:20.167Z,2.53
2019-05-10T00:32:46.536Z,2.43
2019-05-10T00:35:12.999Z,2.40
2019-05-10T00:37:39.347Z,2.40
2019-05-10T00:40:07.449Z,2.40
2019-05-10T00:42:33.879Z,2.47
2019-05-10T00:45:00.348Z,2.10
2019-05-10T00:47:26.728Z,2.67
2019-05-10T00:49:53.210Z,2.30
2019-05-10T00:52:19.651Z,2.33
2019-05-10T00:54:46.114Z,2.60
2019-05-10T00:57:12.560Z,2.60
2019-05-10T00:59:39.005Z,2.83
2019-05-10T01:02:05.479Z,2.50
2019-05-10T01:04:31.823Z,2.77
2019-05-10T01:06:58.291Z,2.70
2019-05-10T01:09:24.667Z,2.80
2019-05-10T01:11:51.074Z,2.73
2019-05-10T01:14:17.503Z,2.93
2019-05-10T01:16:43.891Z,2.60
2019-05-10T01:19:10.339Z,2.60
2019-05-10T01:21:36.704Z,2.63
2019-05-10T01:24:03.150Z,2.60
2019-05-10T01:26:29.744Z,2.90
2019-05-10T01:28:56.098Z,2.80
2019-05-10T01:31:22.707Z,2.53
2019-05-10T01:33:49.179Z,3.07
2019-05-10T01:36:15.547Z,2.63
2019-05-10T01:38:41.995Z,2.90
2019-05-10T01:41:08.503Z,3.07
2019-05-10T01:43:34.955Z,2.90
2019-05-10T01:46:01.347Z,2.90
2019-05-10T01:48:30.913Z,2.77
2019-05-10T01:50:57.290Z,3.00
2019-05-10T01:53:23.931Z,2.83
2019-05-10T01:55:54.309Z,2.73
2019-05-10T01:58:20.859Z,3.20
2019-05-10T02:00:47.212Z,2.50
2019-05-10T02:03:13.787Z,3.43
2019-05-10T02:05:40.260Z,2.73
2019-05-10T02:08:09.064Z,2.67
2019-05-10T02:10:35.518Z,2.93
2019-05-10T02:13:02.094Z,3.57
2019-05-10T02:15:28.537Z,3.30
2019-05-10T02:17:55.001Z,3.03
2019-05-10T02:20:21.451Z,3.20
2019-05-10T02:22:48.025Z,3.07
2019-05-10T02:25:14.573Z,3.00
2019-05-10T02:27:40.939Z,3.20
2019-05-10T02:30:07.605Z,3.27
2019-05-10T02:32:33.993Z,3.60
2019-05-10T02:35:00.464Z,3.53
2019-05-10T02:37:26.920Z,3.93
2019-05-10T02:39:53.388Z,4.47
2019-05-10T02:42:19.842Z,4.17
2019-05-10T02:44:46.204Z,4.33
2019-05-10T02:47:12.562Z,4.07
2019-05-10T02:49:39.123Z,3.93
2019-05-10T02:52:05.574Z,4.10
2019-05-10T02:54:32.260Z,4.40
2019-05-10T02:57:00.512Z,4.67
2019-05-10T02:59:27.693Z,4.40
2019-05-10T03:01:55.140Z,4.53
2019-05-10T03:04:22.209Z,4.47
2019-05-10T03:06:50.470Z,4.43
2019-05-10T03:09:17.736Z,4.60
2019-05-10T03:11:45.493Z,5.20
2019-05-10T03:14:13.897Z,4.27
2019-05-10T03:16:40.960Z,4.90
2019-05-10T03:19:07.433Z,4.83
2019-05-10T03:21:35.787Z,4.70
2019-05-10T03:24:02.274Z,5.10
2019-05-10T03:26:48.198Z,5.17
2019-05-10T03:28:57.806Z,5.23
2019-05-10T03:31:24.192Z,5.23
2019-05-10T03:33:56.509Z,5.77
2019-05-10T03:36:19.024Z,5.57
2019-05-10T03:38:45.580Z,5.63
2019-05-10T03:41:13.071Z,5.60
2019-05-10T03:43:39.511Z,5.73
2019-05-10T03:46:06.105Z,5.30
2019-05-10T03:48:32.535Z,5.20
2019-05-10T03:50:59.108Z,5.90
2019-05-10T03:53:25.555Z,5.20
2019-05-10T03:55:52.130Z,5.17
2019-05-10T03:58:18.581Z,5.10
2019-05-10T04:00:44.970Z,4.80
2019-05-10T04:03:11.420Z,5.53
2019-05-10T04:05:37.894Z,5.40
2019-05-10T04:08:04.340Z,5.47
2019-05-10T04:10:30.820Z,5.47
2019-05-10T04:12:57.385Z,5.87
2019-05-10T04:15:23.853Z,6.30
2019-05-10T04:17:50.713Z,5.67
2019-05-10T04:20:17.194Z,5.83
2019-05-10T04:22:43.573Z,6.13
2019-05-10T04:25:10.265Z,5.83
2019-05-10T04:27:37.053Z,6.30
2019-05-10T04:30:04.839Z,5.77
2019-05-10T04:32:31.422Z,5.83
2019-05-10T04:34:57.925Z,5.40
2019-05-10T04:37:24.404Z,5.23
2019-05-10T04:39:50.828Z,5.13
2019-05-10T04:42:17.176Z,5.33
2019-05-10T04:44:43.545Z,6.07
2019-05-10T04:47:09.898Z,6.00
2019-05-10T04:49:36.530Z,8.90
2019-05-10T04:52:03.116Z,6.93
2019-05-10T04:54:29.471Z,5.87
2019-05-10T04:56:59.956Z,4.73
2019-05-10T04:59:24.320Z,4.70
2019-05-10T05:01:50.699Z,4.20
2019-05-10T05:04:17.156Z,4.70
2019-05-10T05:06:43.620Z,3.90
2019-05-10T05:09:10.071Z,3.80
2019-05-10T05:11:36.455Z,3.73
2019-05-10T05:14:03.113Z,3.73
2019-05-10T05:16:29.679Z,3.77
2019-05-10T05:18:56.231Z,3.70
2019-05-10T05:21:22.746Z,3.80
2019-05-10T05:23:49.164Z,4.13
2019-05-10T05:26:15.627Z,3.33
2019-05-10T05:28:42.088Z,3.67
2019-05-10T05:31:08.504Z,3.67
2019-05-10T05:33:34.953Z,3.70
2019-05-10T05:36:02.468Z,3.63
2019-05-10T05:38:29.211Z,3.80
2019-05-10T05:40:55.684Z,3.67
2019-05-10T05:43:22.235Z,3.60
2019-05-10T05:45:48.618Z,3.47
2019-05-10T05:48:16.076Z,3.90
2019-05-10T05:50:43.444Z,3.97
2019-05-10T05:53:09.896Z,4.10
2019-05-10T05:55:37.578Z,3.27
2019-05-10T05:58:07.071Z,3.50
2019-05-10T06:00:38.012Z,3.60
2019-05-10T06:03:00.772Z,3.20
2019-05-10T06:05:34.292Z,3.30
2019-05-10T06:07:55.687Z,3.30
2019-05-10T06:10:22.173Z,3.23
2019-05-10T06:12:50.661Z,3.20
2019-05-10T06:15:16.987Z,3.13
2019-05-10T06:17:43.372Z,3.10
2019-05-10T06:20:09.846Z,3.60
2019-05-10T06:22:38.361Z,2.97
2019-05-10T06:25:05.166Z,2.80
2019-05-10T06:27:35.257Z,2.87
2019-05-10T06:29:59.791Z,3.03
2019-05-10T06:32:26.347Z,2.80
2019-05-10T06:34:52.854Z,2.57
2019-05-10T06:37:19.332Z,3.03
2019-05-10T06:39:45.775Z,2.40
2019-05-10T06:42:12.247Z,2.43
2019-05-10T06:44:38.599Z,2.20
2019-05-10T06:47:08.468Z,2.40
2019-05-10T06:49:33.415Z,2.60
2019-05-10T06:51:59.887Z,2.40
2019-05-10T06:54:26.243Z,2.40
2019-05-10T06:56:52.707Z,2.30
2019-05-10T06:59:24.293Z,2.13
2019-05-10T07:01:51.958Z,2.30
2019-05-10T07:04:16.093Z,1.90
2019-05-10T07:06:42.560Z,2.43
2019-05-10T07:09:08.943Z,1.77
2019-05-10T07:11:37.462Z,3.30
2019-05-10T07:14:04.044Z,1.80
2019-05-10T07:16:30.593Z,2.27
2019-05-10T07:19:00.651Z,2.67
2019-05-10T07:21:25.533Z,2.30
2019-05-10T07:23:52.075Z,2.55
2019-05-10T07:26:24.725Z,2.57
2019-05-10T07:28:51.811Z,2.07
2019-05-10T07:31:15.411Z,2.10
2019-05-10T07:33:41.787Z,1.90
2019-05-10T07:36:14.723Z,1.57
2019-05-10T07:38:36.560Z,1.52
2019-05-10T07:41:03.187Z,1.40
2019-05-10T07:43:29.712Z,1.55
2019-05-10T07:45:58.629Z,1.75
2019-05-10T07:48:24.533Z,1.70
2019-05-10T07:50:51.908Z,1.60
2019-05-10T07:53:23.091Z,1.60
2019-05-10T07:55:47.045Z,1.52
2019-05-10T07:58:13.515Z,1.87
2019-05-10T08:00:44.606Z,1.55
2019-05-10T08:03:16.572Z,1.35
2019-05-10T08:05:38.929Z,1.60
2019-05-10T08:08:04.955Z,1.47
2019-05-10T08:10:31.505Z,1.90
2019-05-10T08:12:59.523Z,1.60
2019-05-10T08:15:32.618Z,1.70
2019-05-10T08:17:54.535Z,1.30
2019-05-10T08:20:38.087Z,1.37
2019-05-10T08:22:49.465Z,1.22
2019-05-10T08:25:15.919Z,1.20
2019-05-10T08:27:50.085Z,1.80
2019-05-10T08:30:24.409Z,1.30
2019-05-10T08:32:39.066Z,1.35
2019-05-10T08:35:15.769Z,1.40
2019-05-10T08:37:37.711Z,1.22
2019-05-10T08:40:03.281Z,1.55
2019-05-10T08:42:43.780Z,1.47
2019-05-10T08:45:03.758Z,1.75
2019-05-10T08:47:27.863Z,1.47
2019-05-10T08:50:09.342Z,1.30
2019-05-10T08:52:26.905Z,1.32
2019-05-10T08:54:54.919Z,1.42
2019-05-10T09:00:08.815Z,1.52
2019-05-10T09:02:34.600Z,1.40
2019-05-10T09:05:02.661Z,1.50
2019-05-10T09:07:33.959Z,1.70
2019-05-10T09:09:57.520Z,1.45
2019-05-10T09:12:24.073Z,1.77
2019-05-10T09:14:57.586Z,1.17
2019-05-10T09:17:23.514Z,1.35
2019-05-10T09:19:47.323Z,1.50
2019-05-10T09:22:13.810Z,1.40
2019-05-10T09:24:48.126Z,1.12
2019-05-10T09:27:08.623Z,1.20
2019-05-10T09:29:37.295Z,1.40
2019-05-10T09:32:06.323Z,1.27
2019-05-10T09:34:32.441Z,1.27
2019-05-10T09:36:59.224Z,1.45
2019-05-10T09:39:25.591Z,1.22
2019-05-10T09:41:52.769Z,1.10
2019-05-10T09:44:19.453Z,1.42
2019-05-10T09:46:45.911Z,1.30
2019-05-10T09:49:18.124Z,1.40
2019-05-10T09:51:42.285Z,1.50
2019-05-10T09:54:08.985Z,1.50
2019-05-10T09:56:42.065Z,1.50
2019-05-10T09:59:03.823Z,1.40
2019-05-10T10:01:32.492Z,1.57
2019-05-10T10:04:02.092Z,1.37
2019-05-10T10:06:29.496Z,1.30
2019-05-10T10:08:57.747Z,1.25
2019-05-10T10:11:24.272Z,1.25
2019-05-10T10:13:59.375Z,1.32
2019-05-10T10:16:19.277Z,1.02
2019-05-10T10:18:47.667Z,1.42
2019-05-10T10:21:19.037Z,1.20
2019-05-10T10:23:42.523Z,1.25
2019-05-10T10:26:12.517Z,1.42
2019-05-10T10:28:39.592Z,1.75
2019-05-10T10:31:08.243Z,1.20
2019-05-10T10:33:34.046Z,1.27
2019-05-10T10:36:04.732Z,1.30
2019-05-10T10:38:31.311Z,1.25
2019-05-10T10:40:57.714Z,1.40
2019-05-10T10:43:24.295Z,1.20
2019-05-10T10:45:50.896Z,1.20
2019-05-10T10:48:17.895Z,1.50
2019-05-10T10:50:53.367Z,1.20
2019-05-10T10:53:12.791Z,1.35
2019-05-10T10:55:40.279Z,1.37
2019-05-10T10:58:07.471Z,1.40
2019-05-10T11:00:34.489Z,1.15
2019-05-10T11:03:01.842Z,1.07
2019-05-10T11:05:28.315Z,1.10
2019-05-10T11:07:54.663Z,1.30
2019-05-10T11:10:23.033Z,1.10
2019-05-10T11:12:51.279Z,1.17
2019-05-10T11:15:23.103Z,1.30
2019-05-10T11:17:46.133Z,1.10
2019-05-10T11:20:12.597Z,1.20
2019-05-10T11:22:41.840Z,1.10
2019-05-10T11:25:10.426Z,1.30
2019-05-10T11:27:35.875Z,1.02
2019-05-10T11:30:04.108Z,1.22
2019-05-10T11:32:31.989Z,1.20
2019-05-10T11:34:58.427Z,1.10
2019-05-10T11:37:31.054Z,1.10
2019-05-10T11:39:53.035Z,1.15
2019-05-10T11:42:21.184Z,1.47
2019-05-10T11:44:50.887Z,1.30
2019-05-10T11:47:24.071Z,1.12
2019-05-10T11:49:44.596Z,0.95
2019-05-10T11:52:13.236Z,1.02
2019-05-10T11:54:41.549Z,1.10
2019-05-10T11:57:10.898Z,1.45
2019-05-10T11:59:38.694Z,1.00
2019-05-10T12:02:09.455Z,1.10
2019-05-10T12:04:38.834Z,1.00
2019-05-10T12:07:05.890Z,1.00
2019-05-10T12:09:31.609Z,1.00
2019-05-10T12:11:58.161Z,1.17
2019-05-10T12:14:24.613Z,1.07
2019-05-10T12:16:54.667Z,1.30
2019-05-10T12:19:21.182Z,1.15
2019-05-10T12:21:47.865Z,1.00
2019-05-10T12:24:31.205Z,1.10
2019-05-10T12:29:13.794Z,0.90
2019-05-10T12:31:41.370Z,1.30
2019-05-10T12:34:12.828Z,1.30
2019-05-10T12:36:35.872Z,1.20
2019-05-10T12:39:05.023Z,1.30
2019-05-10T12:41:31.709Z,1.10
2019-05-10T12:44:04.137Z,1.10
2019-05-10T12:46:26.623Z,1.20
2019-05-10T12:48:53.074Z,1.20
2019-05-10T12:51:21.135Z,1.30
2019-05-10T12:53:49.809Z,1.32
2019-05-10T12:56:16.178Z,1.17
2019-05-10T12:58:42.633Z,1.32
2019-05-10T13:01:09.103Z,1.30
2019-05-10T13:03:35.957Z,1.40
2019-05-10T13:06:02.451Z,1.02
2019-05-10T13:08:28.812Z,1.40
2019-05-10T13:10:55.259Z,1.42
2019-05-10T13:13:23.732Z,1.47
2019-05-10T13:15:49.896Z,1.30
2019-05-10T13:18:16.364Z,1.25
2019-05-10T13:20:42.740Z,1.20
2019-05-10T13:23:10.176Z,1.32
2019-05-10T13:25:37.560Z,1.47
2019-05-10T13:28:04.137Z,1.30
2019-05-10T13:30:30.728Z,1.40
2019-05-10T13:32:58.563Z,1.57
2019-05-10T13:35:26.013Z,1.40
2019-05-10T13:37:56.799Z,1.40
2019-05-10T13:40:20.723Z,1.37
2019-05-10T13:42:47.195Z,1.30
2019-05-10T13:45:13.847Z,1.30
2019-05-10T13:47:40.315Z,1.65
2019-05-10T13:50:06.983Z,1.10
2019-05-10T13:52:38.119Z,1.20
2019-05-10T13:55:02.891Z,0.98
2019-05-10T13:57:29.363Z,1.05
2019-05-10T13:59:57.411Z,1.10
2019-05-10T14:02:32.632Z,1.87
2019-05-10T14:04:52.267Z,1.00
2019-05-10T14:07:18.983Z,1.00
2019-05-10T14:09:45.532Z,1.20
2019-05-10T14:12:16.203Z,1.00
2019-05-10T14:14:40.356Z,0.90
2019-05-10T14:17:06.927Z,1.10
2019-05-10T14:19:35.895Z,0.93
2019-05-10T14:22:01.765Z,0.90
2019-05-10T14:24:28.538Z,0.80
2019-05-10T14:26:57.161Z,0.80
2019-05-10T14:29:33.357Z,1.20
2019-05-10T14:31:51.669Z,1.05
2019-05-10T14:34:18.219Z,1.00
2019-05-10T14:36:44.674Z,1.10
2019-05-10T14:39:11.139Z,1.10
2019-05-10T14:41:39.793Z,0.95
2019-05-10T14:44:05.852Z,1.00
2019-05-10T14:46:32.307Z,1.17
2019-05-10T14:49:08.739Z,1.10
2019-05-10T14:51:40.305Z,0.90
2019-05-10T14:53:58.283Z,1.00
2019-05-10T14:56:23.915Z,1.10
2019-05-10T14:58:50.514Z,0.80
2019-05-10T15:01:17.155Z,1.15
2019-05-10T15:03:46.093Z,1.00
2019-05-10T15:06:11.986Z,0.93
2019-05-10T15:08:38.381Z,1.22
2019-05-10T15:11:04.839Z,1.00
2019-05-10T15:13:34.792Z,0.93
2019-05-10T15:15:59.553Z,1.20
2019-05-10T15:18:28.706Z,1.00
2019-05-10T15:20:55.152Z,0.82
2019-05-10T15:23:21.525Z,0.98
2019-05-10T15:25:56.664Z,1.17
2019-05-10T15:28:16.443Z,1.10
2019-05-10T15:30:45.836Z,1.15
2019-05-10T15:33:11.475Z,0.95
2019-05-10T15:35:37.927Z,1.10
2019-05-10T15:38:04.396Z,1.17
2019-05-10T15:40:30.749Z,1.22
2019-05-10T15:42:57.116Z,1.30
2019-05-10T15:45:23.577Z,2.20
2019-05-10T15:47:51.904Z,4.15
2019-05-10T15:50:18.526Z,1.20
2019-05-10T15:52:48.525Z,1.10
2019-05-10T15:55:17.111Z,1.05
2019-05-10T15:57:41.836Z,1.12
2019-05-10T16:00:08.476Z,1.10
2019-05-10T16:02:34.919Z,1.00
2019-05-10T16:05:01.662Z,1.50
2019-05-10T16:07:28.071Z,1.40
2019-05-10T16:09:56.206Z,1.52
2019-05-10T16:12:22.724Z,1.20
2019-05-10T16:14:49.096Z,1.40
2019-05-10T16:17:23.587Z,1.20
2019-05-10T16:19:50.488Z,1.20
2019-05-10T16:22:15.112Z,1.62
2019-05-10T16:24:41.495Z,1.50
2019-05-10T16:27:08.000Z,1.45
2019-05-10T16:29:39.749Z,1.42
2019-05-10T16:32:03.039Z,1.75
2019-05-10T16:34:32.266Z,1.90
2019-05-10T16:36:57.783Z,1.70
2019-05-10T16:39:24.388Z,2.00
2019-05-10T16:41:50.843Z,1.52
2019-05-10T16:44:20.711Z,1.70
2019-05-10T16:46:45.659Z,1.67
2019-05-10T16:49:15.596Z,1.95
2019-05-10T16:51:42.282Z,1.02
2019-05-10T16:54:10.598Z,1.20
2019-05-10T16:56:37.259Z,1.00
2019-05-10T16:59:03.735Z,1.17
2019-05-10T17:01:33.361Z,1.20
2019-05-10T17:04:00.299Z,1.00
2019-05-10T17:06:26.717Z,1.42
2019-05-10T17:08:53.158Z,1.20
2019-05-10T17:11:19.627Z,1.25
2019-05-10T17:13:45.978Z,0.95
2019-05-10T17:16:17.383Z,1.22
2019-05-10T17:18:40.697Z,1.10
2019-05-10T17:21:07.167Z,1.00
2019-05-10T17:23:33.603Z,1.35
2019-05-10T17:26:00.267Z,2.42
2019-05-10T17:28:29.459Z,1.10
2019-05-10T17:31:00.109Z,0.93
2019-05-10T17:33:23.522Z,1.00
2019-05-10T17:35:49.989Z,1.32
2019-05-10T17:38:16.548Z,1.30
2019-05-10T17:40:47.563Z,1.15
2019-05-10T17:43:14.150Z,1.10
2019-05-10T17:45:40.508Z,1.07
2019-05-10T17:48:08.730Z,1.30
2019-05-10T17:50:36.379Z,1.10
2019-05-10T17:53:02.927Z,1.30
2019-05-10T17:55:29.312Z,1.20
2019-05-10T17:57:56.601Z,1.10
2019-05-10T18:00:23.416Z,1.30
2019-05-10T18:02:49.808Z,1.10
2019-05-10T18:05:16.363Z,1.20
2019-05-10T18:07:42.827Z,1.35
2019-05-10T18:10:09.484Z,1.27
2019-05-10T18:12:35.853Z,1.02
2019-05-10T18:15:05.054Z,1.45
2019-05-10T18:17:31.683Z,1.40
2019-05-10T18:20:02.216Z,1.30
2019-05-10T18:22:26.552Z,1.42
2019-05-10T18:24:52.923Z,1.70
2019-05-10T18:27:19.423Z,3.40
2019-05-10T18:29:45.876Z,1.80
2019-05-10T18:32:12.389Z,1.67
2019-05-10T18:34:38.734Z,1.70
2019-05-10T18:37:05.307Z,1.20
2019-05-10T18:39:31.753Z,1.60
2019-05-10T18:41:58.227Z,2.67
2019-05-10T18:44:24.676Z,1.90
2019-05-10T18:46:51.023Z,1.90
2019-05-10T18:49:17.392Z,1.83
2019-05-10T18:51:43.741Z,1.77
2019-05-10T18:54:10.351Z,1.80
2019-05-10T18:56:36.799Z,1.70
2019-05-10T18:59:07.486Z,2.20
2019-05-10T19:01:32.827Z,2.10
2019-05-10T19:03:59.883Z,4.67
2019-05-10T19:06:26.333Z,3.20
2019-05-10T19:08:52.731Z,1.90
2019-05-10T19:11:19.313Z,1.83
2019-05-10T19:13:51.238Z,1.57
2019-05-10T19:16:14.198Z,1.93
2019-05-10T19:18:40.579Z,1.97
2019-05-10T19:21:07.033Z,1.90
2019-05-10T19:23:33.503Z,1.80
2019-05-10T19:26:00.064Z,1.80
2019-05-10T19:28:27.319Z,1.90
2019-05-10T19:30:58.799Z,2.13
2019-05-10T19:33:23.283Z,2.90
2019-05-10T19:35:49.722Z,2.80
2019-05-10T19:38:16.171Z,2.50
2019-05-10T19:40:43.540Z,3.30
2019-05-10T19:43:15.156Z,2.27
2019-05-10T19:45:38.273Z,2.10
2019-05-10T19:48:05.979Z,1.90
2019-05-10T19:50:33.234Z,1.97
2019-05-10T19:53:03.971Z,2.13
2019-05-10T19:55:28.159Z,2.00
2019-05-10T19:57:56.461Z,2.33
2019-05-10T20:00:23.069Z,2.47
2019-05-10T20:02:49.662Z,2.17
2019-05-10T20:05:16.223Z,2.13
2019-05-10T20:07:46.080Z,2.03
2019-05-10T20:10:11.068Z,2.10
2019-05-10T20:12:37.415Z,2.63
2019-05-10T20:15:05.691Z,2.20
2019-05-10T20:17:32.251Z,2.27
2019-05-10T20:19:58.703Z,2.20
2019-05-10T20:22:25.056Z,2.33
2019-05-10T20:24:51.629Z,2.10
2019-05-10T20:27:18.080Z,2.40
2019-05-10T20:29:44.787Z,3.07
2019-05-10T20:32:11.196Z,5.10
2019-05-10T20:34:37.643Z,3.73
2019-05-10T20:37:04.151Z,3.10
2019-05-10T20:39:30.595Z,2.77
2019-05-10T20:41:57.080Z,3.20
2019-05-10T20:44:23.524Z,2.70
2019-05-10T20:46:49.987Z,3.37
2019-05-10T20:49:16.430Z,3.03
2019-05-10T20:51:42.820Z,2.87
2019-05-10T20:54:09.271Z,3.23
2019-05-10T20:56:35.717Z,3.37
2019-05-10T20:59:02.180Z,3.30
2019-05-10T21:01:28.648Z,3.40
2019-05-10T21:03:55.099Z,3.37
2019-05-10T21:06:21.563Z,4.30
2019-05-10T21:08:48.740Z,3.77
2019-05-10T21:11:15.126Z,4.67
2019-05-10T21:13:41.675Z,5.17
2019-05-10T21:16:08.151Z,4.03
2019-05-10T21:18:34.495Z,3.27
2019-05-10T21:21:01.085Z,4.03
2019-05-10T21:23:27.711Z,3.93
2019-05-10T21:25:54.287Z,3.50
2019-05-10T21:28:20.740Z,4.13
2019-05-10T21:30:47.144Z,5.17
2019-05-10T21:33:13.601Z,5.70
2019-05-10T21:35:40.075Z,5.83
2019-05-10T21:38:06.432Z,4.80
2019-05-10T21:40:32.858Z,6.53
2019-05-10T21:42:59.292Z,6.17
2019-05-10T21:45:25.819Z,6.60
2019-05-10T21:47:52.264Z,6.33
2019-05-10T21:50:18.679Z,5.73
2019-05-10T21:52:45.122Z,6.20
2019-05-10T21:55:11.629Z,6.10
2019-05-10T21:57:38.089Z,5.70
2019-05-10T22:00:05.731Z,5.70
2019-05-10T22:02:32.388Z,5.97
2019-05-10T22:04:58.986Z,5.73
2019-05-10T22:07:25.467Z,5.80
2019-05-10T22:09:51.983Z,5.60
2019-05-10T22:12:18.424Z,5.73
2019-05-10T22:14:45.252Z,5.50
2019-05-10T22:17:11.755Z,5.43
2019-05-10T22:19:38.239Z,5.70
2019-05-10T22:22:04.649Z,5.83
2019-05-10T22:24:31.140Z,6.10
2019-05-10T22:26:57.740Z,6.00
2019-05-10T22:29:24.169Z,6.00
2019-05-10T22:31:50.899Z,5.60
2019-05-10T22:34:17.419Z,5.53
2019-05-10T22:36:43.829Z,5.30
2019-05-10T22:39:10.211Z,5.53
2019-05-10T22:41:36.624Z,6.17
2019-05-10T22:44:03.113Z,5.20
2019-05-10T22:46:29.721Z,5.57
2019-05-10T22:48:56.311Z,5.50
2019-05-10T22:51:22.719Z,5.87
2019-05-10T22:53:59.654Z,5.87
2019-05-10T22:56:17.508Z,6.60
2019-05-10T22:58:43.996Z,7.10
2019-05-10T23:01:10.503Z,6.00
2019-05-10T23:03:36.923Z,5.37
2019-05-10T23:06:03.423Z,5.87
2019-05-10T23:08:29.813Z,5.33
2019-05-10T23:10:56.300Z,6.47
2019-05-10T23:13:22.704Z,6.50
2019-05-10T23:15:50.204Z,5.93
2019-05-10T23:18:16.631Z,7.20
2019-05-10T23:20:43.019Z,6.37
2019-05-10T23:23:09.529Z,6.67
2019-05-10T23:25:36.216Z,6.70
2019-05-10T23:28:02.739Z,6.80
2019-05-10T23:30:29.318Z,6.33
2019-05-10T23:32:55.859Z,6.30
2019-05-10T23:35:22.287Z,6.63
2019-05-10T23:37:48.796Z,6.70
2019-05-10T23:40:15.388Z,5.77
2019-05-10T23:42:42.151Z,6.13
2019-05-10T23:45:08.934Z,6.00
2019-05-10T23:47:35.367Z,5.83
2019-05-10T23:50:02.655Z,5.73
2019-05-10T23:52:29.259Z,5.80
2019-05-10T23:54:55.851Z,6.20
2019-05-10T23:57:22.275Z,5.97
2019-05-10T23:59:48.822Z,7.00
